createdAt,value
2023-02-02T00:01:47.233Z,8.42
2023-02-02T00:04:51.454Z,8.17
2023-02-02T00:07:55.608Z,7.98
2023-02-02T00:10:59.676Z,7.99
2023-02-02T00:14:06.041Z,8.09
2023-02-02T00:17:10.033Z,8.00
2023-02-02T00:20:17.012Z,7.62
2023-02-02T00:23:21.006Z,7.29
2023-02-02T00:26:28.193Z,7.46
2023-02-02T00:29:37.983Z,7.06
2023-02-02T00:32:43.782Z,6.84
2023-02-02T00:36:41.615Z,7.24
2023-02-02T00:40:20.390Z,7.52
2023-02-02T00:42:48.929Z,7.59
2023-02-02T00:45:53.061Z,7.72
2023-02-02T00:52:31.262Z,7.54
2023-02-02T00:55:47.827Z,7.73
2023-02-02T00:58:59.616Z,7.37
2023-02-02T01:02:08.134Z,7.60
2023-02-02T01:05:35.497Z,6.97
2023-02-02T01:09:27.123Z,7.46
2023-02-02T01:12:11.865Z,7.50
2023-02-02T01:15:41.203Z,7.69
2023-02-02T01:18:44.499Z,7.01
2023-02-02T01:21:48.666Z,7.30
2023-02-02T01:24:52.605Z,7.35
2023-02-02T01:27:59.813Z,7.37
2023-02-02T01:31:04.132Z,7.61
2023-02-02T01:34:10.708Z,7.67
2023-02-02T01:37:14.611Z,7.74
2023-02-02T01:40:31.057Z,7.82
2023-02-02T01:43:45.221Z,7.89
2023-02-02T01:53:42.696Z,8.04
2023-02-02T02:10:32.223Z,7.87
2023-02-02T02:20:28.422Z,7.76
2023-02-02T02:23:36.043Z,8.04
2023-02-02T02:26:47.952Z,8.06
2023-02-02T02:33:22.184Z,8.08
2023-02-02T02:36:27.297Z,8.09
2023-02-02T02:39:33.995Z,8.22
2023-02-02T02:42:42.160Z,8.25
2023-02-02T02:46:13.837Z,7.70
2023-02-02T02:49:17.851Z,7.96
2023-02-02T02:52:29.606Z,7.85
2023-02-02T02:56:25.488Z,7.76
2023-02-02T02:59:02.135Z,7.98
2023-02-02T03:02:09.715Z,8.05
2023-02-02T03:05:13.886Z,7.96
2023-02-02T03:08:19.210Z,7.78
2023-02-02T03:11:26.201Z,8.13
2023-02-02T03:14:30.507Z,8.19
2023-02-02T03:17:34.959Z,8.30
2023-02-02T03:20:39.183Z,7.74
2023-02-02T03:23:43.425Z,7.71
2023-02-02T03:26:58.065Z,7.40
2023-02-02T03:30:02.433Z,7.09
2023-02-02T03:33:06.534Z,7.10
2023-02-02T03:36:11.050Z,7.19
2023-02-02T03:39:17.204Z,7.35
2023-02-02T03:42:24.697Z,7.57
2023-02-02T03:45:30.014Z,7.85
2023-02-02T03:48:39.395Z,7.60
2023-02-02T03:51:46.749Z,7.32
2023-02-02T03:54:50.789Z,7.70
2023-02-02T03:57:57.057Z,7.75
2023-02-02T04:01:02.502Z,7.81
2023-02-02T04:04:12.983Z,7.53
2023-02-02T04:07:16.967Z,7.82
2023-02-02T04:10:21.787Z,7.50
2023-02-02T04:16:43.866Z,7.82
2023-02-02T04:19:48.287Z,7.53
2023-02-02T04:22:54.684Z,7.42
2023-02-02T04:25:58.695Z,7.15
2023-02-02T04:29:02.902Z,7.62
2023-02-02T04:32:07.918Z,7.86
2023-02-02T04:35:12.237Z,7.92
2023-02-02T04:38:16.114Z,7.69
2023-02-02T04:41:21.845Z,7.97
2023-02-02T04:44:28.407Z,8.07
2023-02-02T04:47:35.970Z,7.21
2023-02-02T04:50:48.907Z,7.28
2023-02-02T04:54:01.993Z,7.56
2023-02-02T04:57:17.506Z,7.52
2023-02-02T05:00:25.788Z,7.25
2023-02-02T05:03:33.107Z,7.26
2023-02-02T05:06:38.450Z,7.23
2023-02-02T05:09:43.606Z,7.51
2023-02-02T05:12:51.729Z,7.50
2023-02-02T05:20:12.699Z,7.29
2023-02-02T05:23:09.918Z,7.37
2023-02-02T05:50:13.751Z,7.36
2023-02-02T05:53:24.675Z,7.27
2023-02-02T05:56:33.046Z,7.49
2023-02-02T05:59:38.407Z,7.23
2023-02-02T06:02:49.629Z,7.28
2023-02-02T06:05:58.436Z,7.15
2023-02-02T06:09:07.507Z,7.56
2023-02-02T06:12:13.311Z,7.30
2023-02-02T06:15:17.658Z,7.30
2023-02-02T06:18:21.490Z,7.21
2023-02-02T06:21:25.070Z,7.57
2023-02-02T06:24:29.959Z,7.72
2023-02-02T06:27:40.060Z,7.35
2023-02-02T06:34:12.936Z,7.39
2023-02-02T06:37:17.333Z,7.28
2023-02-02T06:40:34.379Z,7.37
2023-02-02T06:43:39.876Z,7.42
2023-02-02T06:46:44.058Z,7.18
2023-02-02T06:49:47.772Z,7.14
2023-02-02T06:52:51.918Z,7.56
2023-02-02T06:55:55.809Z,7.50
2023-02-02T06:59:00.135Z,6.91
2023-02-02T07:02:04.150Z,7.21
2023-02-02T07:05:08.455Z,7.56
2023-02-02T07:08:12.800Z,7.62
2023-02-02T07:11:16.897Z,7.74
2023-02-02T07:14:21.614Z,7.09
2023-02-02T07:17:28.676Z,7.25
2023-02-02T07:20:32.877Z,7.19
2023-02-02T07:23:40.802Z,7.31
2023-02-02T07:26:44.814Z,7.49
2023-02-02T07:29:48.815Z,7.69
2023-02-02T07:32:52.899Z,7.94
2023-02-02T07:35:56.904Z,7.96
2023-02-02T07:39:00.878Z,7.73
2023-02-02T07:42:05.219Z,7.77
2023-02-02T07:45:27.277Z,8.02
2023-02-02T07:48:32.227Z,7.93
2023-02-02T07:51:38.078Z,7.84
2023-02-02T07:54:43.454Z,7.47
2023-02-02T07:57:47.479Z,7.68
2023-02-02T08:00:51.723Z,7.89
2023-02-02T08:03:55.743Z,7.87
2023-02-02T08:06:59.574Z,7.76
2023-02-02T08:10:03.369Z,7.73
2023-02-02T08:13:07.083Z,8.13
2023-02-02T08:16:11.169Z,8.20
2023-02-02T08:19:15.197Z,8.31
2023-02-02T08:22:20.318Z,8.19
2023-02-02T08:25:24.757Z,8.47
2023-02-02T08:28:28.858Z,8.61
2023-02-02T08:34:55.863Z,9.00
2023-02-02T08:37:59.751Z,9.05
2023-02-02T08:41:03.988Z,9.08
2023-02-02T08:44:10.969Z,9.13
2023-02-02T08:47:15.326Z,9.15
2023-02-02T08:50:19.524Z,8.93
2023-02-02T08:53:23.816Z,8.46
2023-02-02T08:56:28.290Z,8.28
2023-02-02T08:59:31.934Z,8.96
2023-02-02T09:02:35.915Z,9.17
2023-02-02T09:05:39.960Z,9.32
2023-02-02T09:08:44.077Z,9.45
2023-02-02T09:11:48.101Z,9.49
2023-02-02T09:14:52.136Z,9.64
2023-02-02T09:17:56.339Z,9.43
2023-02-02T09:21:00.513Z,9.70
2023-02-02T09:24:04.896Z,9.41
2023-02-02T09:27:10.325Z,9.68
2023-02-02T09:30:14.093Z,9.86
2023-02-02T09:33:18.159Z,9.44
2023-02-02T09:36:22.328Z,9.58
2023-02-02T09:39:26.310Z,9.69
2023-02-02T09:42:30.531Z,9.59
2023-02-02T09:45:34.741Z,9.30
2023-02-02T09:48:38.954Z,9.62
2023-02-02T09:51:42.716Z,9.80
2023-02-02T09:54:46.878Z,9.70
2023-02-02T09:57:50.884Z,9.77
2023-02-02T10:00:54.876Z,10.07
2023-02-02T10:04:00.138Z,9.89
2023-02-02T10:07:06.499Z,9.98
2023-02-02T10:10:10.630Z,10.17
2023-02-02T10:13:14.575Z,10.09
2023-02-02T10:16:18.794Z,10.07
2023-02-02T10:19:22.844Z,9.44
2023-02-02T10:22:27.123Z,9.43
2023-02-02T10:25:31.111Z,9.74
2023-02-02T10:28:35.109Z,9.85
2023-02-02T10:31:38.971Z,9.93
2023-02-02T10:34:42.874Z,9.68
2023-02-02T10:37:48.415Z,9.77
2023-02-02T10:40:52.743Z,9.60
2023-02-02T10:43:56.633Z,9.55
2023-02-02T10:47:00.611Z,9.31
2023-02-02T10:50:04.959Z,9.65
2023-02-02T10:53:08.741Z,9.50
2023-02-02T10:56:12.719Z,9.25
2023-02-02T10:59:18.227Z,9.56
2023-02-02T11:02:22.402Z,9.71
2023-02-02T11:05:26.297Z,9.56
2023-02-02T11:08:30.377Z,9.48
2023-02-02T11:11:34.494Z,9.58
2023-02-02T11:14:45.257Z,9.58
2023-02-02T11:17:50.042Z,9.78
2023-02-02T11:20:57.063Z,9.83
2023-02-02T11:24:01.860Z,9.86
2023-02-02T11:27:06.102Z,9.38
2023-02-02T11:30:10.138Z,9.61
2023-02-02T11:33:14.192Z,9.65
2023-02-02T11:36:21.334Z,9.61
2023-02-02T11:39:24.865Z,9.69
2023-02-02T11:42:29.004Z,9.89
2023-02-02T11:45:32.892Z,10.02
2023-02-02T11:48:37.073Z,10.05
2023-02-02T11:51:41.308Z,10.00
2023-02-02T11:54:44.958Z,9.85
2023-02-02T11:57:49.032Z,9.95
2023-02-02T12:00:52.869Z,9.91
2023-02-02T12:03:57.054Z,10.00
2023-02-02T12:07:00.725Z,9.88
2023-02-02T12:10:04.761Z,10.06
2023-02-02T12:13:08.653Z,10.00
2023-02-02T12:16:12.719Z,10.01
2023-02-02T12:19:16.752Z,9.85
2023-02-02T12:22:20.748Z,9.80
2023-02-02T12:25:25.424Z,9.91
2023-02-02T12:28:29.622Z,9.94
2023-02-02T12:31:37.003Z,10.07
2023-02-02T12:34:41.083Z,9.93
2023-02-02T12:37:44.830Z,9.99
2023-02-02T12:40:48.943Z,10.02
2023-02-02T12:43:54.060Z,10.02
2023-02-02T12:46:58.332Z,10.13
2023-02-02T12:50:03.383Z,10.23
2023-02-02T12:53:07.546Z,10.43
2023-02-02T12:56:14.248Z,10.47
2023-02-02T12:59:18.424Z,10.23
2023-02-02T13:02:22.507Z,10.40
2023-02-02T13:08:48.334Z,10.53
2023-02-02T13:11:52.283Z,10.10
2023-02-02T13:14:56.159Z,10.66
2023-02-02T13:18:00.094Z,10.43
2023-02-02T13:21:04.205Z,11.05
2023-02-02T13:24:08.270Z,11.42
2023-02-02T13:27:12.293Z,11.98
2023-02-02T13:30:16.438Z,12.10
2023-02-02T13:33:20.382Z,12.30
2023-02-02T13:36:24.472Z,12.41
2023-02-02T13:39:28.605Z,13.36
2023-02-02T13:42:32.553Z,13.17
2023-02-02T13:45:36.691Z,13.44
2023-02-02T13:48:40.691Z,13.37
2023-02-02T13:51:44.643Z,12.61
2023-02-02T13:54:48.476Z,12.27
2023-02-02T13:57:52.595Z,12.75
2023-02-02T14:00:56.693Z,13.07
2023-02-02T14:04:00.776Z,13.24
2023-02-02T14:10:08.036Z,12.85
2023-02-02T14:13:11.978Z,13.10
2023-02-02T14:16:16.152Z,13.47
2023-02-02T14:19:20.178Z,12.80
2023-02-02T14:22:24.242Z,12.43
2023-02-02T14:25:28.337Z,12.37
2023-02-02T14:28:32.472Z,12.00
2023-02-02T14:31:36.632Z,12.42
2023-02-02T14:34:40.410Z,12.68
2023-02-02T14:37:44.355Z,12.89
2023-02-02T14:40:48.470Z,13.01
2023-02-02T14:43:52.367Z,12.61
2023-02-02T14:46:56.549Z,12.74
2023-02-02T14:50:00.468Z,12.65
2023-02-02T14:53:04.268Z,12.61
2023-02-02T14:56:08.472Z,12.55
2023-02-02T14:59:12.646Z,12.46
2023-02-02T15:02:16.562Z,12.60
2023-02-02T15:05:20.449Z,12.03
2023-02-02T15:08:24.525Z,12.45
2023-02-02T15:11:28.577Z,12.19
2023-02-02T15:14:32.635Z,12.43
2023-02-02T15:17:36.565Z,12.06
2023-02-02T15:20:40.757Z,11.70
2023-02-02T15:23:44.872Z,11.32
2023-02-02T15:26:49.000Z,11.44
2023-02-02T15:29:52.943Z,11.02
2023-02-02T15:32:56.903Z,10.67
2023-02-02T15:36:00.921Z,11.18
2023-02-02T15:39:05.066Z,11.53
2023-02-02T15:42:09.927Z,11.23
2023-02-02T15:45:13.866Z,11.46
2023-02-02T15:48:17.812Z,11.34
2023-02-02T15:51:21.810Z,11.66
2023-02-02T15:54:25.787Z,11.69
2023-02-02T15:57:31.229Z,11.50
2023-02-02T16:00:35.251Z,11.55
2023-02-02T16:03:38.959Z,10.93
2023-02-02T16:06:43.134Z,11.07
2023-02-02T16:09:47.064Z,11.11
2023-02-02T16:12:50.933Z,11.01
2023-02-02T16:15:54.994Z,10.96
2023-02-02T16:18:59.098Z,10.81
2023-02-02T16:22:03.209Z,10.66
2023-02-02T16:25:07.300Z,10.45
2023-02-02T16:28:11.306Z,10.61
2023-02-02T16:31:15.469Z,10.57
2023-02-02T16:34:19.683Z,10.61
2023-02-02T16:37:23.655Z,10.56
2023-02-02T16:40:27.644Z,10.45
2023-02-02T16:43:31.625Z,9.79
2023-02-02T16:46:35.646Z,9.61
2023-02-02T16:49:39.892Z,9.68
2023-02-02T16:52:43.826Z,9.57
2023-02-02T16:55:50.913Z,9.42
2023-02-02T16:58:55.349Z,9.49
2023-02-02T17:01:59.569Z,9.49
2023-02-02T17:05:03.550Z,9.63
2023-02-02T17:08:08.320Z,9.57
2023-02-02T17:11:12.540Z,9.70
2023-02-02T17:14:19.334Z,9.60
2023-02-02T17:17:23.094Z,9.58
2023-02-02T17:20:27.129Z,9.32
2023-02-02T17:23:31.090Z,9.14
2023-02-02T17:26:35.185Z,8.77
2023-02-02T17:29:38.942Z,8.98
2023-02-02T17:32:43.089Z,9.13
2023-02-02T17:35:54.975Z,9.00
2023-02-02T17:38:59.199Z,8.81
2023-02-02T17:42:03.169Z,8.76
2023-02-02T17:45:07.473Z,8.74
2023-02-02T17:48:11.717Z,8.51
2023-02-02T17:51:15.682Z,8.59
2023-02-02T17:54:20.587Z,8.42
2023-02-02T17:57:24.713Z,8.54
2023-02-02T18:00:31.145Z,8.68
2023-02-02T18:03:35.465Z,8.50
2023-02-02T18:06:39.656Z,8.04
2023-02-02T18:09:43.215Z,8.17
2023-02-02T18:12:47.348Z,7.71
2023-02-02T18:15:51.586Z,7.83
2023-02-02T18:18:55.461Z,7.90
2023-02-02T18:21:59.439Z,7.86
2023-02-02T18:25:03.523Z,7.92
2023-02-02T18:28:07.611Z,7.96
2023-02-02T18:31:13.017Z,8.16
2023-02-02T18:34:17.148Z,7.57
2023-02-02T18:37:23.025Z,7.75
2023-02-02T18:40:27.181Z,7.94
2023-02-02T18:43:31.137Z,7.89
2023-02-02T18:46:36.839Z,7.90
2023-02-02T18:49:41.193Z,7.98
2023-02-02T18:52:45.388Z,7.81
2023-02-02T18:55:49.494Z,8.11
2023-02-02T18:58:53.910Z,8.29
2023-02-02T19:02:00.736Z,8.41
2023-02-02T19:05:07.568Z,8.41
2023-02-02T19:08:11.708Z,8.18
2023-02-02T19:11:15.472Z,8.22
2023-02-02T19:14:22.169Z,7.95
2023-02-02T19:17:26.063Z,7.79
2023-02-02T19:20:33.150Z,7.53
2023-02-02T19:23:37.067Z,7.21
2023-02-02T19:26:44.159Z,6.86
2023-02-02T19:29:48.248Z,6.87
2023-02-02T19:32:52.014Z,7.42
2023-02-02T19:35:55.929Z,7.64
2023-02-02T19:38:59.905Z,7.70
2023-02-02T19:42:06.499Z,7.00
2023-02-02T19:45:10.795Z,6.93
2023-02-02T19:48:15.231Z,6.80
2023-02-02T19:51:19.470Z,7.26
2023-02-02T19:54:24.173Z,7.44
2023-02-02T19:57:28.595Z,7.32
2023-02-02T20:00:34.633Z,7.06
2023-02-02T20:03:39.027Z,6.87
2023-02-02T20:06:58.216Z,6.67
2023-02-02T20:10:03.589Z,6.48
2023-02-02T20:13:07.324Z,6.52
2023-02-02T20:16:11.456Z,6.36
2023-02-02T20:19:15.567Z,6.45
2023-02-02T20:22:22.509Z,6.48
2023-02-02T20:25:26.960Z,6.67
2023-02-02T20:28:30.825Z,6.70
2023-02-02T20:31:35.989Z,6.62
2023-02-02T20:34:41.109Z,6.78
2023-02-02T20:37:47.298Z,7.11
2023-02-02T20:40:51.318Z,7.21
2023-02-02T20:43:55.787Z,7.17
2023-02-02T20:47:02.692Z,7.11
2023-02-02T20:50:07.905Z,6.92
2023-02-02T20:53:11.745Z,7.01
2023-02-02T20:56:15.580Z,6.83
2023-02-02T20:59:21.067Z,6.84
2023-02-02T21:02:28.017Z,6.87
2023-02-02T21:05:33.354Z,6.56
2023-02-02T21:08:37.161Z,6.50
2023-02-02T21:11:40.894Z,6.74
2023-02-02T21:14:44.799Z,6.74
2023-02-02T21:17:51.339Z,6.75
2023-02-02T21:20:57.528Z,6.26
2023-02-02T21:24:04.175Z,5.80
2023-02-02T21:27:08.143Z,5.65
2023-02-02T21:30:12.250Z,5.44
2023-02-02T21:33:16.008Z,5.61
2023-02-02T21:36:20.420Z,5.95
2023-02-02T21:39:24.508Z,6.06
2023-02-02T21:42:28.299Z,5.99
2023-02-02T21:45:32.595Z,6.49
2023-02-02T21:48:36.740Z,6.36
2023-02-02T21:51:40.915Z,6.52
2023-02-02T21:54:45.230Z,6.60
2023-02-02T21:57:49.257Z,6.64
2023-02-02T22:00:53.350Z,6.59
2023-02-02T22:03:57.565Z,6.45
2023-02-02T22:07:01.681Z,6.36
2023-02-02T22:10:06.388Z,6.45
2023-02-02T22:13:10.118Z,6.43
2023-02-02T22:16:14.374Z,6.52
2023-02-02T22:19:18.225Z,6.54
2023-02-02T22:22:21.936Z,6.58
2023-02-02T22:25:25.870Z,6.24
2023-02-02T22:28:29.928Z,6.09
2023-02-02T22:31:34.203Z,5.70
2023-02-02T22:34:38.163Z,5.75
2023-02-02T22:37:42.057Z,5.82
2023-02-02T22:40:46.322Z,5.83
2023-02-02T22:43:50.655Z,5.61
2023-02-02T22:46:54.504Z,5.56
2023-02-02T22:49:58.689Z,5.68
2023-02-02T22:53:02.310Z,6.08
2023-02-02T22:56:06.167Z,5.93
2023-02-02T22:59:10.133Z,5.45
2023-02-02T23:02:13.988Z,5.35
2023-02-02T23:05:17.784Z,5.45
2023-02-02T23:08:21.700Z,5.66
2023-02-02T23:11:25.895Z,5.49
2023-02-02T23:14:29.805Z,5.90
2023-02-02T23:17:33.976Z,5.34
2023-02-02T23:20:37.731Z,5.23
2023-02-02T23:23:41.543Z,5.38
2023-02-02T23:26:45.602Z,5.20
2023-02-02T23:29:49.746Z,5.60
2023-02-02T23:32:53.836Z,5.66
2023-02-02T23:35:57.787Z,5.37
2023-02-02T23:39:01.965Z,5.81
2023-02-02T23:42:06.460Z,5.39
2023-02-02T23:45:10.646Z,5.80
2023-02-02T23:48:14.559Z,5.34
2023-02-02T23:51:18.729Z,5.79
2023-02-02T23:54:22.772Z,5.40
2023-02-02T23:57:26.956Z,5.36
